sensor_id;sensor_type;location;lat;lon;timestamp;pressure;altitude;pressure_sealevel;temperature;humidity
5522;BME280;2783;48.730;8.006;2024-03-02T00:02:07;98922.88;;;5.97;100.00
5522;BME280;2783;48.730;8.006;2024-03-02T00:04:33;98925.56;;;5.96;100.00
5522;BME280;2783;48.730;8.006;2024-03-02T00:06:59;98924.03;;;5.89;100.00
5522;BME280;2783;48.730;8.006;2024-03-02T00:09:24;98919.97;;;5.77;100.00
5522;BME280;2783;48.730;8.006;2024-03-02T00:11:50;98922.06;;;5.66;100.00
5522;BME280;2783;48.730;8.006;2024-03-02T00:14:16;98924.84;;;5.62;100.00
5522;BME280;2783;48.730;8.006;2024-03-02T00:16:42;98935.66;;;5.53;100.00
5522;BME280;2783;48.730;8.006;2024-03-02T00:19:08;98931.47;;;5.46;100.00
5522;BME280;2783;48.730;8.006;2024-03-02T00:21:34;98892.66;;;5.21;100.00
5522;BME280;2783;48.730;8.006;2024-03-02T00:24:01;98926.47;;;5.36;100.00
5522;BME280;2783;48.730;8.006;2024-03-02T00:26:32;98936.31;;;5.31;100.00
5522;BME280;2783;48.730;8.006;2024-03-02T00:28:58;98939.03;;;5.28;100.00
5522;BME280;2783;48.730;8.006;2024-03-02T00:31:25;98939.22;;;5.21;100.00
5522;BME280;2783;48.730;8.006;2024-03-02T00:33:51;98934.22;;;5.12;100.00
5522;BME280;2783;48.730;8.006;2024-03-02T00:36:22;98940.72;;;5.00;100.00
5522;BME280;2783;48.730;8.006;2024-03-02T00:38:51;98939.38;;;4.84;100.00
5522;BME280;2783;48.730;8.006;2024-03-02T00:41:24;98936.16;;;4.73;100.00
5522;BME280;2783;48.730;8.006;2024-03-02T00:44:04;98930.03;;;4.73;100.00
5522;BME280;2783;48.730;8.006;2024-03-02T00:46:35;98937.94;;;4.73;100.00
5522;BME280;2783;48.730;8.006;2024-03-02T00:49:03;98935.44;;;4.68;100.00
5522;BME280;2783;48.730;8.006;2024-03-02T00:51:33;98932.88;;;4.65;100.00
5522;BME280;2783;48.730;8.006;2024-03-02T00:54:01;98930.38;;;4.61;100.00
5522;BME280;2783;48.730;8.006;2024-03-02T00:56:29;98920.78;;;4.58;100.00
5522;BME280;2783;48.730;8.006;2024-03-02T00:58:55;98923.44;;;4.57;100.00
5522;BME280;2783;48.730;8.006;2024-03-02T01:01:21;98921.69;;;4.57;100.00
5522;BME280;2783;48.730;8.006;2024-03-02T01:03:46;98920.69;;;4.61;100.00
5522;BME280;2783;48.730;8.006;2024-03-02T01:06:12;98925.94;;;4.61;100.00
5522;BME280;2783;48.730;8.006;2024-03-02T01:08:38;98932.97;;;4.62;100.00
5522;BME280;2783;48.730;8.006;2024-03-02T01:11:04;98925.28;;;4.53;100.00
5522;BME280;2783;48.730;8.006;2024-03-02T01:13:30;98921.09;;;4.46;100.00
5522;BME280;2783;48.730;8.006;2024-03-02T01:15:56;98923.75;;;4.46;100.00
5522;BME280;2783;48.730;8.006;2024-03-02T01:18:22;98926.13;;;4.55;100.00
5522;BME280;2783;48.730;8.006;2024-03-02T01:20:49;98930.50;;;4.55;100.00
5522;BME280;2783;48.730;8.006;2024-03-02T01:23:17;98926.91;;;4.59;100.00
5522;BME280;2783;48.730;8.006;2024-03-02T01:25:43;98927.91;;;4.53;100.00
5522;BME280;2783;48.730;8.006;2024-03-02T01:28:08;98933.28;;;4.50;100.00
5522;BME280;2783;48.730;8.006;2024-03-02T01:30:34;98925.50;;;4.46;100.00
5522;BME280;2783;48.730;8.006;2024-03-02T01:33:00;98923.78;;;4.43;100.00
5522;BME280;2783;48.730;8.006;2024-03-02T01:35:25;98920.09;;;4.50;100.00
5522;BME280;2783;48.730;8.006;2024-03-02T01:37:51;98919.31;;;4.47;100.00
5522;BME280;2783;48.730;8.006;2024-03-02T01:40:17;98915.72;;;4.51;100.00
5522;BME280;2783;48.730;8.006;2024-03-02T01:42:43;98924.50;;;4.51;100.00
5522;BME280;2783;48.730;8.006;2024-03-02T01:45:08;98904.66;;;4.37;100.00
5522;BME280;2783;48.730;8.006;2024-03-02T01:47:35;98919.28;;;4.50;100.00
5522;BME280;2783;48.730;8.006;2024-03-02T01:50:00;98855.72;;;3.96;100.00
5522;BME280;2783;48.730;8.006;2024-03-02T01:52:27;98919.75;;;4.30;100.00
5522;BME280;2783;48.730;8.006;2024-03-02T01:54:52;98923.47;;;4.23;100.00
5522;BME280;2783;48.730;8.006;2024-03-02T01:57:18;98928.94;;;4.14;100.00
5522;BME280;2783;48.730;8.006;2024-03-02T01:59:44;98918.56;;;4.08;100.00
5522;BME280;2783;48.730;8.006;2024-03-02T02:02:10;98919.53;;;4.04;100.00
5522;BME280;2783;48.730;8.006;2024-03-02T02:04:36;98916.22;;;3.96;100.00
5522;BME280;2783;48.730;8.006;2024-03-02T02:07:01;98874.69;;;3.73;100.00
5522;BME280;2783;48.730;8.006;2024-03-02T02:09:26;98908.31;;;3.96;100.00
5522;BME280;2783;48.730;8.006;2024-03-02T02:11:52;98903.94;;;3.96;100.00
5522;BME280;2783;48.730;8.006;2024-03-02T02:14:17;98905.66;;;3.97;100.00
5522;BME280;2783;48.730;8.006;2024-03-02T02:16:43;98903.03;;;3.97;100.00
5522;BME280;2783;48.730;8.006;2024-03-02T02:19:09;98895.19;;;3.96;100.00
5522;BME280;2783;48.730;8.006;2024-03-02T02:21:34;98897.72;;;3.99;100.00
5522;BME280;2783;48.730;8.006;2024-03-02T02:24:00;98895.94;;;4.01;100.00
5522;BME280;2783;48.730;8.006;2024-03-02T02:26:28;98893.34;;;3.99;100.00
5522;BME280;2783;48.730;8.006;2024-03-02T02:28:53;98888.91;;;4.01;100.00
5522;BME280;2783;48.730;8.006;2024-03-02T02:31:19;98883.59;;;4.03;100.00
5522;BME280;2783;48.730;8.006;2024-03-02T02:33:44;98886.31;;;4.00;100.00
5522;BME280;2783;48.730;8.006;2024-03-02T02:36:09;98881.94;;;3.99;100.00
5522;BME280;2783;48.730;8.006;2024-03-02T02:38:40;98879.44;;;3.94;100.00
5522;BME280;2783;48.730;8.006;2024-03-02T02:41:07;98878.69;;;3.89;100.00
5522;BME280;2783;48.730;8.006;2024-03-02T02:43:32;98807.06;;;3.43;100.00
5522;BME280;2783;48.730;8.006;2024-03-02T02:45:58;98864.59;;;3.92;100.00
5522;BME280;2783;48.730;8.006;2024-03-02T02:48:23;98863.59;;;3.96;100.00
5522;BME280;2783;48.730;8.006;2024-03-02T02:50:48;98854.00;;;3.95;100.00
5522;BME280;2783;48.730;8.006;2024-03-02T02:53:14;98868.88;;;3.96;100.00
5522;BME280;2783;48.730;8.006;2024-03-02T02:55:39;98863.72;;;3.91;100.00
5522;BME280;2783;48.730;8.006;2024-03-02T02:58:12;98864.72;;;3.86;100.00
5522;BME280;2783;48.730;8.006;2024-03-02T03:00:38;98866.59;;;3.81;100.00
5522;BME280;2783;48.730;8.006;2024-03-02T03:03:08;98870.22;;;3.77;100.00
5522;BME280;2783;48.730;8.006;2024-03-02T03:05:34;98849.28;;;3.74;100.00
5522;BME280;2783;48.730;8.006;2024-03-02T03:07:59;98859.84;;;3.71;100.00
5522;BME280;2783;48.730;8.006;2024-03-02T03:10:25;98858.13;;;3.70;100.00
5522;BME280;2783;48.730;8.006;2024-03-02T03:12:52;98786.50;;;3.24;100.00
5522;BME280;2783;48.730;8.006;2024-03-02T03:15:18;98850.59;;;3.55;100.00
5522;BME280;2783;48.730;8.006;2024-03-02T03:17:43;98844.66;;;3.47;100.00
5522;BME280;2783;48.730;8.006;2024-03-02T03:20:11;98849.06;;;3.45;100.00
5522;BME280;2783;48.730;8.006;2024-03-02T03:22:37;98842.63;;;3.58;100.00
5522;BME280;2783;48.730;8.006;2024-03-02T03:25:03;98853.22;;;3.55;100.00
5522;BME280;2783;48.730;8.006;2024-03-02T03:27:28;98839.19;;;3.54;100.00
5522;BME280;2783;48.730;8.006;2024-03-02T03:29:54;98845.25;;;3.58;100.00
5522;BME280;2783;48.730;8.006;2024-03-02T03:32:20;98847.25;;;3.48;100.00
5522;BME280;2783;48.730;8.006;2024-03-02T03:34:45;98841.19;;;3.45;100.00
5522;BME280;2783;48.730;8.006;2024-03-02T03:37:11;98833.25;;;3.46;100.00
5522;BME280;2783;48.730;8.006;2024-03-02T03:39:36;98800.59;;;3.21;100.00
5522;BME280;2783;48.730;8.006;2024-03-02T03:42:02;98842.69;;;3.55;100.00
5522;BME280;2783;48.730;8.006;2024-03-02T03:44:28;98833.19;;;3.49;100.00
5522;BME280;2783;48.730;8.006;2024-03-02T03:46:53;98841.91;;;3.51;100.00
5522;BME280;2783;48.730;8.006;2024-03-02T03:49:19;98833.09;;;3.54;100.00
5522;BME280;2783;48.730;8.006;2024-03-02T03:51:44;98838.41;;;3.52;100.00
5522;BME280;2783;48.730;8.006;2024-03-02T03:54:10;98841.16;;;3.46;100.00
5522;BME280;2783;48.730;8.006;2024-03-02T03:56:36;98845.63;;;3.41;100.00
5522;BME280;2783;48.730;8.006;2024-03-02T03:59:02;98847.59;;;3.33;100.00
5522;BME280;2783;48.730;8.006;2024-03-02T04:01:27;98838.03;;;3.31;100.00
5522;BME280;2783;48.730;8.006;2024-03-02T04:03:53;98837.28;;;3.24;100.00
5522;BME280;2783;48.730;8.006;2024-03-02T04:06:19;98842.56;;;3.24;100.00
5522;BME280;2783;48.730;8.006;2024-03-02T04:08:44;98852.09;;;3.27;100.00
5522;BME280;2783;48.730;8.006;2024-03-02T04:11:10;98850.34;;;3.27;100.00
5522;BME280;2783;48.730;8.006;2024-03-02T04:13:35;98814.38;;;2.91;100.00
5522;BME280;2783;48.730;8.006;2024-03-02T04:16:01;98857.00;;;3.04;100.00
5522;BME280;2783;48.730;8.006;2024-03-02T04:18:26;98856.19;;;3.00;100.00
5522;BME280;2783;48.730;8.006;2024-03-02T04:20:52;98861.53;;;2.96;100.00
5522;BME280;2783;48.730;8.006;2024-03-02T04:23:17;98866.72;;;2.99;100.00
5522;BME280;2783;48.730;8.006;2024-03-02T04:25:42;98868.47;;;3.00;100.00
5522;BME280;2783;48.730;8.006;2024-03-02T04:28:08;98874.56;;;3.00;100.00
5522;BME280;2783;48.730;8.006;2024-03-02T04:30:33;98881.63;;;3.00;100.00
5522;BME280;2783;48.730;8.006;2024-03-02T04:32:59;98879.00;;;3.00;100.00
5522;BME280;2783;48.730;8.006;2024-03-02T04:35:24;98880.84;;;2.95;100.00
5522;BME280;2783;48.730;8.006;2024-03-02T04:37:50;98872.13;;;2.93;100.00
5522;BME280;2783;48.730;8.006;2024-03-02T04:40:16;98867.75;;;2.93;100.00
5522;BME280;2783;48.730;8.006;2024-03-02T04:42:41;98823.56;;;2.70;100.00
5522;BME280;2783;48.730;8.006;2024-03-02T04:45:07;98860.59;;;3.00;100.00
5522;BME280;2783;48.730;8.006;2024-03-02T04:47:32;98866.63;;;3.05;100.00
5522;BME280;2783;48.730;8.006;2024-03-02T04:49:58;98865.66;;;3.09;100.00
5522;BME280;2783;48.730;8.006;2024-03-02T04:52:23;98877.06;;;3.08;100.00
5522;BME280;2783;48.730;8.006;2024-03-02T04:54:49;98879.75;;;3.05;100.00
5522;BME280;2783;48.730;8.006;2024-03-02T04:57:33;98881.50;;;3.04;100.00
5522;BME280;2783;48.730;8.006;2024-03-02T04:59:58;98877.91;;;3.08;100.00
5522;BME280;2783;48.730;8.006;2024-03-02T05:02:23;98838.19;;;2.82;100.00
5522;BME280;2783;48.730;8.006;2024-03-02T05:04:49;98894.53;;;3.09;100.00
5522;BME280;2783;48.730;8.006;2024-03-02T05:07:14;98898.97;;;3.05;100.00
5522;BME280;2783;48.730;8.006;2024-03-02T05:09:40;98905.03;;;3.09;100.00
5522;BME280;2783;48.730;8.006;2024-03-02T05:12:05;98897.94;;;3.14;100.00
5522;BME280;2783;48.730;8.006;2024-03-02T05:14:49;98898.81;;;3.14;100.00
5522;BME280;2783;48.730;8.006;2024-03-02T05:17:15;98899.53;;;3.21;100.00
5522;BME280;2783;48.730;8.006;2024-03-02T05:19:40;98897.75;;;3.23;100.00
5522;BME280;2783;48.730;8.006;2024-03-02T05:22:05;98895.94;;;3.25;100.00
5522;BME280;2783;48.730;8.006;2024-03-02T05:24:31;98892.50;;;3.23;100.00
5522;BME280;2783;48.730;8.006;2024-03-02T05:26:56;98893.56;;;3.14;100.00
5522;BME280;2783;48.730;8.006;2024-03-02T05:29:22;98891.66;;;3.21;100.00
5522;BME280;2783;48.730;8.006;2024-03-02T05:31:48;98896.06;;;3.19;100.00
5522;BME280;2783;48.730;8.006;2024-03-02T05:34:13;98871.16;;;2.98;100.00
5522;BME280;2783;48.730;8.006;2024-03-02T05:36:39;98888.91;;;3.27;100.00
5522;BME280;2783;48.730;8.006;2024-03-02T05:39:05;98879.34;;;3.24;100.00
5522;BME280;2783;48.730;8.006;2024-03-02T05:41:35;98897.53;;;3.32;100.00
5522;BME280;2783;48.730;8.006;2024-03-02T05:44:01;98897.53;;;3.32;100.00
5522;BME280;2783;48.730;8.006;2024-03-02T05:46:27;98895.94;;;3.25;100.00
5522;BME280;2783;48.730;8.006;2024-03-02T05:48:52;98897.88;;;3.17;100.00
5522;BME280;2783;48.730;8.006;2024-03-02T05:51:17;98905.13;;;3.06;100.00
5522;BME280;2783;48.730;8.006;2024-03-02T05:53:43;98897.44;;;2.95;100.00
5522;BME280;2783;48.730;8.006;2024-03-02T05:56:08;98903.81;;;2.84;100.00
5522;BME280;2783;48.730;8.006;2024-03-02T05:58:34;98897.81;;;2.77;100.00
5522;BME280;2783;48.730;8.006;2024-03-02T06:01:26;98901.41;;;2.73;100.00
5522;BME280;2783;48.730;8.006;2024-03-02T06:03:55;98897.00;;;2.73;100.00
5522;BME280;2783;48.730;8.006;2024-03-02T06:06:20;98886.34;;;2.83;100.00
5522;BME280;2783;48.730;8.006;2024-03-02T06:08:46;98902.00;;;2.86;100.00
5522;BME280;2783;48.730;8.006;2024-03-02T06:11:11;98901.25;;;2.81;100.00
5522;BME280;2783;48.730;8.006;2024-03-02T06:13:37;98905.66;;;2.79;100.00
5522;BME280;2783;48.730;8.006;2024-03-02T06:16:02;98903.00;;;2.82;100.00
5522;BME280;2783;48.730;8.006;2024-03-02T06:18:27;98903.06;;;2.77;100.00
5522;BME280;2783;48.730;8.006;2024-03-02T06:20:53;98907.28;;;2.86;100.00
5522;BME280;2783;48.730;8.006;2024-03-02T06:23:18;98910.59;;;2.94;100.00
5522;BME280;2783;48.730;8.006;2024-03-02T06:25:44;98913.09;;;3.01;100.00
5522;BME280;2783;48.730;8.006;2024-03-02T06:28:09;98915.63;;;3.06;100.00
5522;BME280;2783;48.730;8.006;2024-03-02T06:30:35;98913.91;;;3.05;100.00
5522;BME280;2783;48.730;8.006;2024-03-02T06:33:00;98921.78;;;3.05;100.00
5522;BME280;2783;48.730;8.006;2024-03-02T06:35:25;98920.81;;;3.09;100.00
5522;BME280;2783;48.730;8.006;2024-03-02T06:37:51;98920.63;;;3.18;100.00
5522;BME280;2783;48.730;8.006;2024-03-02T06:40:17;98917.09;;;3.19;100.00
5522;BME280;2783;48.730;8.006;2024-03-02T06:42:42;98924.72;;;3.31;100.00
5522;BME280;2783;48.730;8.006;2024-03-02T06:45:07;98915.72;;;3.42;100.00
5522;BME280;2783;48.730;8.006;2024-03-02T06:47:33;98897.91;;;3.55;100.00
5522;BME280;2783;48.730;8.006;2024-03-02T06:49:58;98900.16;;;3.71;100.00
5522;BME280;2783;48.730;8.006;2024-03-02T06:52:24;98904.19;;;3.86;100.00
5522;BME280;2783;48.730;8.006;2024-03-02T06:54:49;98894.22;;;4.00;100.00
5522;BME280;2783;48.730;8.006;2024-03-02T06:57:15;98902.53;;;4.17;100.00
5522;BME280;2783;48.730;8.006;2024-03-02T06:59:42;98899.66;;;4.28;100.00
5522;BME280;2783;48.730;8.006;2024-03-02T07:02:07;98894.91;;;4.40;100.00
5522;BME280;2783;48.730;8.006;2024-03-02T07:04:34;98892.59;;;4.62;100.00
5522;BME280;2783;48.730;8.006;2024-03-02T07:06:59;98866.31;;;4.60;100.00
5522;BME280;2783;48.730;8.006;2024-03-02T07:09:24;98889.47;;;4.80;100.00
5522;BME280;2783;48.730;8.006;2024-03-02T07:11:51;98894.16;;;4.99;100.00
5522;BME280;2783;48.730;8.006;2024-03-02T07:14:16;98885.09;;;5.95;100.00
5522;BME280;2783;48.730;8.006;2024-03-02T07:16:42;98879.34;;;7.99;100.00
5522;BME280;2783;48.730;8.006;2024-03-02T07:19:08;98881.91;;;9.80;100.00
5522;BME280;2783;48.730;8.006;2024-03-02T07:21:34;98878.13;;;11.56;90.55
5522;BME280;2783;48.730;8.006;2024-03-02T07:23:59;98879.69;;;12.97;75.58
5522;BME280;2783;48.730;8.006;2024-03-02T07:26:28;98879.34;;;14.42;60.98
5522;BME280;2783;48.730;8.006;2024-03-02T07:28:55;98889.84;;;14.58;56.05
5522;BME280;2783;48.730;8.006;2024-03-02T07:31:20;98892.88;;;15.05;54.58
5522;BME280;2783;48.730;8.006;2024-03-02T07:33:46;98894.38;;;14.97;52.22
5522;BME280;2783;48.730;8.006;2024-03-02T07:36:12;98907.97;;;13.86;55.19
5522;BME280;2783;48.730;8.006;2024-03-02T07:38:37;98905.53;;;14.64;53.92
5522;BME280;2783;48.730;8.006;2024-03-02T07:41:03;98899.03;;;15.57;49.67
5522;BME280;2783;48.730;8.006;2024-03-02T07:43:30;98908.63;;;15.22;49.11
5522;BME280;2783;48.730;8.006;2024-03-02T07:45:57;98903.94;;;14.07;52.81
5522;BME280;2783;48.730;8.006;2024-03-02T07:48:22;98910.84;;;13.27;55.59
5522;BME280;2783;48.730;8.006;2024-03-02T07:50:48;98906.88;;;12.74;57.67
5522;BME280;2783;48.730;8.006;2024-03-02T07:53:13;98903.88;;;12.35;59.89
5522;BME280;2783;48.730;8.006;2024-03-02T07:55:40;98902.63;;;13.15;63.49
5522;BME280;2783;48.730;8.006;2024-03-02T07:58:06;98895.41;;;14.94;58.23
5522;BME280;2783;48.730;8.006;2024-03-02T08:00:31;98890.88;;;16.56;53.17
5522;BME280;2783;48.730;8.006;2024-03-02T08:02:57;98888.06;;;17.84;48.75
5522;BME280;2783;48.730;8.006;2024-03-02T08:05:22;98896.97;;;18.40;46.76
5522;BME280;2783;48.730;8.006;2024-03-02T08:07:48;98890.41;;;18.96;45.45
5522;BME280;2783;48.730;8.006;2024-03-02T08:10:17;98881.28;;;19.49;44.49
5522;BME280;2783;48.730;8.006;2024-03-02T08:12:43;98893.25;;;19.56;43.47
5522;BME280;2783;48.730;8.006;2024-03-02T08:15:08;98894.16;;;19.66;42.94
5522;BME280;2783;48.730;8.006;2024-03-02T08:17:34;98892.28;;;19.87;43.72
5522;BME280;2783;48.730;8.006;2024-03-02T08:19:59;98889.94;;;20.03;42.54
5522;BME280;2783;48.730;8.006;2024-03-02T08:22:24;98894.78;;;20.39;41.61
5522;BME280;2783;48.730;8.006;2024-03-02T08:24:53;98896.09;;;20.54;41.06
5522;BME280;2783;48.730;8.006;2024-03-02T08:27:19;98863.00;;;20.13;41.14
5522;BME280;2783;48.730;8.006;2024-03-02T08:29:45;98872.69;;;20.15;39.93
5522;BME280;2783;48.730;8.006;2024-03-02T08:32:10;98901.56;;;20.24;41.49
5522;BME280;2783;48.730;8.006;2024-03-02T08:34:36;98907.72;;;20.36;40.87
5522;BME280;2783;48.730;8.006;2024-03-02T08:37:02;98869.91;;;20.36;41.74
5522;BME280;2783;48.730;8.006;2024-03-02T08:39:28;98905.41;;;20.31;41.38
5522;BME280;2783;48.730;8.006;2024-03-02T08:41:54;98901.44;;;20.35;41.83
5522;BME280;2783;48.730;8.006;2024-03-02T08:44:19;98896.16;;;20.24;41.58
5522;BME280;2783;48.730;8.006;2024-03-02T08:46:45;98900.34;;;19.78;41.32
5522;BME280;2783;48.730;8.006;2024-03-02T08:49:10;98893.44;;;19.64;41.85
5522;BME280;2783;48.730;8.006;2024-03-02T08:51:36;98879.09;;;19.94;41.78
5522;BME280;2783;48.730;8.006;2024-03-02T08:54:01;98869.78;;;20.07;41.56
5522;BME280;2783;48.730;8.006;2024-03-02T08:56:27;98887.28;;;20.52;42.56
5522;BME280;2783;48.730;8.006;2024-03-02T08:58:52;98861.59;;;20.18;41.56
5522;BME280;2783;48.730;8.006;2024-03-02T09:01:18;98890.16;;;19.91;42.44
5522;BME280;2783;48.730;8.006;2024-03-02T09:03:45;98869.38;;;19.51;41.65
5522;BME280;2783;48.730;8.006;2024-03-02T09:06:14;98887.06;;;19.65;43.87
5522;BME280;2783;48.730;8.006;2024-03-02T09:08:42;98885.31;;;19.85;43.83
5522;BME280;2783;48.730;8.006;2024-03-02T09:11:08;98886.53;;;19.50;44.06
5522;BME280;2783;48.730;8.006;2024-03-02T09:13:34;98886.06;;;19.25;44.29
5522;BME280;2783;48.730;8.006;2024-03-02T09:15:59;98890.00;;;19.32;44.31
5522;BME280;2783;48.730;8.006;2024-03-02T09:18:25;98884.25;;;19.25;43.22
5522;BME280;2783;48.730;8.006;2024-03-02T09:20:50;98890.16;;;19.60;44.04
5522;BME280;2783;48.730;8.006;2024-03-02T09:23:16;98887.25;;;19.73;43.85
5522;BME280;2783;48.730;8.006;2024-03-02T09:25:41;98885.91;;;19.37;43.22
5522;BME280;2783;48.730;8.006;2024-03-02T09:28:07;98881.03;;;19.52;43.90
5522;BME280;2783;48.730;8.006;2024-03-02T09:30:33;98874.50;;;19.75;43.89
5522;BME280;2783;48.730;8.006;2024-03-02T09:32:58;98875.66;;;19.52;43.92
5522;BME280;2783;48.730;8.006;2024-03-02T09:35:24;98867.09;;;19.47;44.49
5522;BME280;2783;48.730;8.006;2024-03-02T09:37:49;98877.19;;;19.13;45.29
5522;BME280;2783;48.730;8.006;2024-03-02T09:40:15;98878.84;;;18.73;45.39
5522;BME280;2783;48.730;8.006;2024-03-02T09:42:41;98880.28;;;18.46;46.92
5522;BME280;2783;48.730;8.006;2024-03-02T09:45:07;98877.81;;;18.54;45.87
5522;BME280;2783;48.730;8.006;2024-03-02T09:47:33;98876.97;;;18.85;46.61
5522;BME280;2783;48.730;8.006;2024-03-02T09:49:59;98871.13;;;19.00;45.28
5522;BME280;2783;48.730;8.006;2024-03-02T09:52:24;98872.63;;;18.73;47.17
5522;BME280;2783;48.730;8.006;2024-03-02T09:54:50;98876.47;;;18.91;46.40
5522;BME280;2783;48.730;8.006;2024-03-02T09:57:15;98862.34;;;19.19;45.24
5522;BME280;2783;48.730;8.006;2024-03-02T09:59:41;98858.00;;;19.27;45.39
5522;BME280;2783;48.730;8.006;2024-03-02T10:02:06;98858.00;;;19.69;45.41
5522;BME280;2783;48.730;8.006;2024-03-02T10:04:33;98863.22;;;20.00;44.58
5522;BME280;2783;48.730;8.006;2024-03-02T10:07:15;98843.09;;;20.14;43.54
5522;BME280;2783;48.730;8.006;2024-03-02T10:09:43;98853.66;;;20.26;44.59
5522;BME280;2783;48.730;8.006;2024-03-02T10:12:10;98834.38;;;20.88;42.83
5522;BME280;2783;48.730;8.006;2024-03-02T10:14:37;98841.81;;;21.15;41.39
5522;BME280;2783;48.730;8.006;2024-03-02T10:19:29;98835.94;;;21.38;41.46
5522;BME280;2783;48.730;8.006;2024-03-02T10:22:05;98840.94;;;21.05;41.98
5522;BME280;2783;48.730;8.006;2024-03-02T10:24:44;98834.81;;;21.12;42.08
5522;BME280;2783;48.730;8.006;2024-03-02T10:27:15;98847.47;;;21.31;42.18
5522;BME280;2783;48.730;8.006;2024-03-02T10:29:41;98834.66;;;21.33;42.89
5522;BME280;2783;48.730;8.006;2024-03-02T10:32:10;98827.69;;;21.67;42.03
5522;BME280;2783;48.730;8.006;2024-03-02T10:34:37;98829.94;;;21.90;40.66
5522;BME280;2783;48.730;8.006;2024-03-02T10:37:03;98827.75;;;22.21;41.10
5522;BME280;2783;48.730;8.006;2024-03-02T10:39:28;98821.13;;;22.06;40.40
5522;BME280;2783;48.730;8.006;2024-03-02T10:41:55;98833.53;;;21.72;41.22
5522;BME280;2783;48.730;8.006;2024-03-02T10:44:22;98833.22;;;21.75;40.66
5522;BME280;2783;48.730;8.006;2024-03-02T10:46:49;98828.06;;;22.18;40.98
5522;BME280;2783;48.730;8.006;2024-03-02T10:49:16;98825.13;;;22.56;39.71
5522;BME280;2783;48.730;8.006;2024-03-02T10:51:42;98819.75;;;22.02;39.90
5522;BME280;2783;48.730;8.006;2024-03-02T10:54:07;98812.91;;;22.25;40.63
5522;BME280;2783;48.730;8.006;2024-03-02T10:56:44;98806.06;;;22.48;41.46
5522;BME280;2783;48.730;8.006;2024-03-02T10:59:26;98803.00;;;22.78;39.51
5522;BME280;2783;48.730;8.006;2024-03-02T11:01:56;98802.97;;;22.61;40.58
5522;BME280;2783;48.730;8.006;2024-03-02T11:04:29;98790.75;;;22.74;41.79
5522;BME280;2783;48.730;8.006;2024-03-02T11:07:04;98786.00;;;22.59;39.57
5522;BME280;2783;48.730;8.006;2024-03-02T11:09:33;98791.38;;;22.68;40.68
5522;BME280;2783;48.730;8.006;2024-03-02T11:12:03;98778.94;;;23.01;38.42
5522;BME280;2783;48.730;8.006;2024-03-02T11:14:31;98776.25;;;23.26;38.27
5522;BME280;2783;48.730;8.006;2024-03-02T11:17:01;98776.50;;;23.67;36.43
5522;BME280;2783;48.730;8.006;2024-03-02T11:19:29;98773.47;;;23.70;37.33
5522;BME280;2783;48.730;8.006;2024-03-02T11:21:55;98774.72;;;23.50;38.11
5522;BME280;2783;48.730;8.006;2024-03-02T11:26:47;98772.69;;;23.85;38.34
5522;BME280;2783;48.730;8.006;2024-03-02T11:34:45;98756.69;;;24.16;37.52
5522;BME280;2783;48.730;8.006;2024-03-02T11:37:20;98749.72;;;23.72;36.04
5522;BME280;2783;48.730;8.006;2024-03-02T11:39:48;98752.09;;;23.75;36.89
5522;BME280;2783;48.730;8.006;2024-03-02T11:42:14;98742.63;;;23.19;36.81
5522;BME280;2783;48.730;8.006;2024-03-02T11:44:47;98755.56;;;22.30;38.49
5522;BME280;2783;48.730;8.006;2024-03-02T11:47:15;98752.69;;;21.13;39.29
5522;BME280;2783;48.730;8.006;2024-03-02T11:49:45;98752.75;;;20.65;42.10
5522;BME280;2783;48.730;8.006;2024-03-02T11:52:15;98751.03;;;20.83;41.95
5522;BME280;2783;48.730;8.006;2024-03-02T11:54:44;98740.78;;;21.70;41.27
5522;BME280;2783;48.730;8.006;2024-03-02T11:57:13;98736.19;;;22.77;39.35
5522;BME280;2783;48.730;8.006;2024-03-02T11:59:40;98723.09;;;23.41;38.58
5522;BME280;2783;48.730;8.006;2024-03-02T12:02:06;98726.59;;;24.01;37.37
5522;BME280;2783;48.730;8.006;2024-03-02T12:04:31;98712.94;;;24.67;36.71
5522;BME280;2783;48.730;8.006;2024-03-02T12:06:58;98710.53;;;25.20;36.75
5522;BME280;2783;48.730;8.006;2024-03-02T12:09:27;98704.28;;;25.66;34.29
5522;BME280;2783;48.730;8.006;2024-03-02T12:12:06;98704.63;;;25.71;34.26
5522;BME280;2783;48.730;8.006;2024-03-02T12:14:34;98699.72;;;25.98;32.65
5522;BME280;2783;48.730;8.006;2024-03-02T12:16:59;98696.19;;;25.89;34.24
5522;BME280;2783;48.730;8.006;2024-03-02T12:19:26;98701.50;;;26.44;33.73
5522;BME280;2783;48.730;8.006;2024-03-02T12:21:53;98692.47;;;26.88;33.00
5522;BME280;2783;48.730;8.006;2024-03-02T12:24:18;98668.00;;;26.95;31.90
5522;BME280;2783;48.730;8.006;2024-03-02T12:26:44;98688.66;;;26.75;31.93
5522;BME280;2783;48.730;8.006;2024-03-02T12:29:10;98686.28;;;26.72;31.22
5522;BME280;2783;48.730;8.006;2024-03-02T12:31:36;98686.44;;;26.25;32.68
5522;BME280;2783;48.730;8.006;2024-03-02T12:34:03;98686.84;;;25.45;32.05
5522;BME280;2783;48.730;8.006;2024-03-02T12:36:29;98676.63;;;25.39;34.08
5522;BME280;2783;48.730;8.006;2024-03-02T12:38:54;98674.50;;;25.65;33.55
5522;BME280;2783;48.730;8.006;2024-03-02T12:41:20;98673.13;;;26.30;32.64
5522;BME280;2783;48.730;8.006;2024-03-02T12:43:46;98665.00;;;26.45;32.69
5522;BME280;2783;48.730;8.006;2024-03-02T12:46:11;98668.44;;;25.55;31.54
5522;BME280;2783;48.730;8.006;2024-03-02T12:48:37;98667.75;;;25.53;33.13
5522;BME280;2783;48.730;8.006;2024-03-02T12:51:06;98661.53;;;25.67;34.31
5522;BME280;2783;48.730;8.006;2024-03-02T12:53:31;98659.41;;;25.54;33.82
5522;BME280;2783;48.730;8.006;2024-03-02T12:55:57;98651.69;;;25.66;33.54
5522;BME280;2783;48.730;8.006;2024-03-02T12:58:24;98650.91;;;25.88;33.63
5522;BME280;2783;48.730;8.006;2024-03-02T13:00:49;98650.13;;;25.25;31.60
5522;BME280;2783;48.730;8.006;2024-03-02T13:03:17;98655.47;;;24.22;32.97
5522;BME280;2783;48.730;8.006;2024-03-02T13:05:48;98650.78;;;23.82;33.95
5522;BME280;2783;48.730;8.006;2024-03-02T13:08:14;98641.50;;;23.43;34.62
5522;BME280;2783;48.730;8.006;2024-03-02T13:10:40;98641.00;;;23.14;35.01
5522;BME280;2783;48.730;8.006;2024-03-02T13:13:06;98639.03;;;22.65;34.74
5522;BME280;2783;48.730;8.006;2024-03-02T13:15:33;98631.03;;;22.20;35.75
5522;BME280;2783;48.730;8.006;2024-03-02T13:17:59;98635.78;;;22.61;35.20
5522;BME280;2783;48.730;8.006;2024-03-02T13:20:30;98633.06;;;23.20;35.74
5522;BME280;2783;48.730;8.006;2024-03-02T13:22:57;98635.66;;;23.64;35.46
5522;BME280;2783;48.730;8.006;2024-03-02T13:25:22;98638.84;;;24.33;33.13
5522;BME280;2783;48.730;8.006;2024-03-02T13:27:48;98634.25;;;24.33;33.45
5522;BME280;2783;48.730;8.006;2024-03-02T13:30:13;98624.56;;;24.15;32.38